sensor_id;sensor_type;location;lat;lon;timestamp;temperature;humidity
31527;DHT22;18136;42.236;-73.040;2023-05-10T00:00:35;11.10;80.80
31527;DHT22;18136;42.236;-73.040;2023-05-10T00:03:01;11.00;81.80
31527;DHT22;18136;42.236;-73.040;2023-05-10T00:05:30;10.90;82.10
31527;DHT22;18136;42.236;-73.040;2023-05-10T00:07:56;10.80;82.50
31527;DHT22;18136;42.236;-73.040;2023-05-10T00:10:22;10.60;83.70
31527;DHT22;18136;42.236;-73.040;2023-05-10T00:12:48;10.50;85.70
31527;DHT22;18136;42.236;-73.040;2023-05-10T00:15:14;10.40;84.70
31527;DHT22;18136;42.236;-73.040;2023-05-10T00:17:41;10.30;85.90
31527;DHT22;18136;42.236;-73.040;2023-05-10T00:20:07;10.20;87.00
31527;DHT22;18136;42.236;-73.040;2023-05-10T00:22:33;10.10;86.80
31527;DHT22;18136;42.236;-73.040;2023-05-10T00:24:59;10.00;87.10
31527;DHT22;18136;42.236;-73.040;2023-05-10T00:27:27;9.90;87.30
31527;DHT22;18136;42.236;-73.040;2023-05-10T00:29:54;9.90;86.50
31527;DHT22;18136;42.236;-73.040;2023-05-10T00:32:20;9.80;88.70
31527;DHT22;18136;42.236;-73.040;2023-05-10T00:34:46;9.70;88.40
31527;DHT22;18136;42.236;-73.040;2023-05-10T00:37:12;9.60;89.00
31527;DHT22;18136;42.236;-73.040;2023-05-10T00:39:38;9.60;89.20
31527;DHT22;18136;42.236;-73.040;2023-05-10T00:42:04;9.50;90.50
31527;DHT22;18136;42.236;-73.040;2023-05-10T00:44:30;9.40;90.00
31527;DHT22;18136;42.236;-73.040;2023-05-10T00:46:57;9.30;90.60
31527;DHT22;18136;42.236;-73.040;2023-05-10T00:49:23;9.20;90.30
31527;DHT22;18136;42.236;-73.040;2023-05-10T00:51:50;9.10;90.60
31527;DHT22;18136;42.236;-73.040;2023-05-10T00:54:16;9.00;90.90
31527;DHT22;18136;42.236;-73.040;2023-05-10T00:56:42;9.00;91.10
31527;DHT22;18136;42.236;-73.040;2023-05-10T00:59:17;8.90;91.30
31527;DHT22;18136;42.236;-73.040;2023-05-10T01:01:47;8.80;90.70
31527;DHT22;18136;42.236;-73.040;2023-05-10T01:04:14;8.80;91.60
31527;DHT22;18136;42.236;-73.040;2023-05-10T01:06:46;8.70;91.40
31527;DHT22;18136;42.236;-73.040;2023-05-10T01:09:13;8.60;91.00
31527;DHT22;18136;42.236;-73.040;2023-05-10T01:11:40;8.50;92.00
31527;DHT22;18136;42.236;-73.040;2023-05-10T01:14:06;8.50;92.10
31527;DHT22;18136;42.236;-73.040;2023-05-10T01:16:38;8.40;92.30
31527;DHT22;18136;42.236;-73.040;2023-05-10T01:19:24;8.40;92.50
31527;DHT22;18136;42.236;-73.040;2023-05-10T01:22:15;8.40;92.70
31527;DHT22;18136;42.236;-73.040;2023-05-10T01:31:08;8.10;94.40
31527;DHT22;18136;42.236;-73.040;2023-05-10T01:33:52;8.00;94.80
31527;DHT22;18136;42.236;-73.040;2023-05-10T01:36:31;7.90;95.10
31527;DHT22;18136;42.236;-73.040;2023-05-10T01:39:08;7.80;94.90
31527;DHT22;18136;42.236;-73.040;2023-05-10T01:44:29;7.70;96.00
31527;DHT22;18136;42.236;-73.040;2023-05-10T01:47:17;7.60;96.20
31527;DHT22;18136;42.236;-73.040;2023-05-10T01:49:54;7.60;96.30
31527;DHT22;18136;42.236;-73.040;2023-05-10T01:52:26;7.60;96.30
31527;DHT22;18136;42.236;-73.040;2023-05-10T01:55:19;7.50;96.60
31527;DHT22;18136;42.236;-73.040;2023-05-10T01:57:54;7.50;96.70
31527;DHT22;18136;42.236;-73.040;2023-05-10T02:00:31;7.50;96.90
31527;DHT22;18136;42.236;-73.040;2023-05-10T02:03:00;7.40;97.40
31527;DHT22;18136;42.236;-73.040;2023-05-10T02:06:17;7.40;97.60
31527;DHT22;18136;42.236;-73.040;2023-05-10T02:11:20;7.30;97.30
31527;DHT22;18136;42.236;-73.040;2023-05-10T02:13:56;7.30;96.80
31527;DHT22;18136;42.236;-73.040;2023-05-10T02:16:39;7.20;97.90
31527;DHT22;18136;42.236;-73.040;2023-05-10T02:19:19;7.10;97.90
31527;DHT22;18136;42.236;-73.040;2023-05-10T02:21:46;7.10;97.30
31527;DHT22;18136;42.236;-73.040;2023-05-10T02:24:18;7.00;97.70
31527;DHT22;18136;42.236;-73.040;2023-05-10T02:26:51;7.00;97.60
31527;DHT22;18136;42.236;-73.040;2023-05-10T02:29:20;6.90;97.00
31527;DHT22;18136;42.236;-73.040;2023-05-10T02:31:51;6.80;97.70
31527;DHT22;18136;42.236;-73.040;2023-05-10T02:34:20;6.80;97.10
31527;DHT22;18136;42.236;-73.040;2023-05-10T02:36:54;6.80;96.40
31527;DHT22;18136;42.236;-73.040;2023-05-10T02:39:25;6.80;96.50
31527;DHT22;18136;42.236;-73.040;2023-05-10T02:42:00;6.70;96.10
31527;DHT22;18136;42.236;-73.040;2023-05-10T02:44:35;6.70;98.10
31527;DHT22;18136;42.236;-73.040;2023-05-10T02:47:25;6.60;97.80
31527;DHT22;18136;42.236;-73.040;2023-05-10T02:50:13;6.60;96.90
31527;DHT22;18136;42.236;-73.040;2023-05-10T02:52:51;6.50;97.50
31527;DHT22;18136;42.236;-73.040;2023-05-10T02:55:35;6.50;97.10
31527;DHT22;18136;42.236;-73.040;2023-05-10T02:58:12;6.50;97.40
31527;DHT22;18136;42.236;-73.040;2023-05-10T03:00:44;6.50;98.10
31527;DHT22;18136;42.236;-73.040;2023-05-10T03:03:20;6.50;98.40
31527;DHT22;18136;42.236;-73.040;2023-05-10T03:05:50;6.40;98.00
31527;DHT22;18136;42.236;-73.040;2023-05-10T03:08:22;6.40;98.00
31527;DHT22;18136;42.236;-73.040;2023-05-10T03:19:58;6.10;99.50
31527;DHT22;18136;42.236;-73.040;2023-05-10T03:22:37;6.10;99.60
31527;DHT22;18136;42.236;-73.040;2023-05-10T03:25:08;6.00;99.90
31527;DHT22;18136;42.236;-73.040;2023-05-10T03:27:43;6.00;99.90
31527;DHT22;18136;42.236;-73.040;2023-05-10T03:30:11;6.00;99.90
31527;DHT22;18136;42.236;-73.040;2023-05-10T03:32:41;5.90;99.90
31527;DHT22;18136;42.236;-73.040;2023-05-10T03:35:21;5.90;99.90
31527;DHT22;18136;42.236;-73.040;2023-05-10T03:37:56;5.90;99.90
31527;DHT22;18136;42.236;-73.040;2023-05-10T03:40:27;5.80;99.90
31527;DHT22;18136;42.236;-73.040;2023-05-10T03:42:58;5.80;99.90
31527;DHT22;18136;42.236;-73.040;2023-05-10T03:45:26;5.90;99.70
31527;DHT22;18136;42.236;-73.040;2023-05-10T03:48:00;5.90;99.90
31527;DHT22;18136;42.236;-73.040;2023-05-10T03:50:28;5.90;99.90
31527;DHT22;18136;42.236;-73.040;2023-05-10T03:53:05;5.90;99.90
31527;DHT22;18136;42.236;-73.040;2023-05-10T03:55:35;5.90;99.90
31527;DHT22;18136;42.236;-73.040;2023-05-10T03:58:19;5.90;99.90
31527;DHT22;18136;42.236;-73.040;2023-05-10T04:00:45;5.90;99.90
31527;DHT22;18136;42.236;-73.040;2023-05-10T04:03:12;6.00;99.90
31527;DHT22;18136;42.236;-73.040;2023-05-10T04:05:44;6.00;99.90
31527;DHT22;18136;42.236;-73.040;2023-05-10T04:08:13;6.00;99.90
31527;DHT22;18136;42.236;-73.040;2023-05-10T04:10:44;6.00;99.90
31527;DHT22;18136;42.236;-73.040;2023-05-10T04:13:20;6.00;99.90
31527;DHT22;18136;42.236;-73.040;2023-05-10T04:15:46;6.10;99.90
31527;DHT22;18136;42.236;-73.040;2023-05-10T04:18:13;6.10;99.90
31527;DHT22;18136;42.236;-73.040;2023-05-10T04:20:49;6.10;99.90
31527;DHT22;18136;42.236;-73.040;2023-05-10T04:23:15;6.10;99.50
31527;DHT22;18136;42.236;-73.040;2023-05-10T04:25:46;6.10;99.90
31527;DHT22;18136;42.236;-73.040;2023-05-10T04:28:12;6.10;99.90
31527;DHT22;18136;42.236;-73.040;2023-05-10T04:30:42;6.10;99.90
31527;DHT22;18136;42.236;-73.040;2023-05-10T04:33:08;6.10;99.90
31527;DHT22;18136;42.236;-73.040;2023-05-10T04:35:37;6.10;99.90
31527;DHT22;18136;42.236;-73.040;2023-05-10T04:38:06;6.00;99.90
31527;DHT22;18136;42.236;-73.040;2023-05-10T04:40:46;6.00;99.90
31527;DHT22;18136;42.236;-73.040;2023-05-10T04:43:12;6.00;99.90
31527;DHT22;18136;42.236;-73.040;2023-05-10T04:45:38;6.00;99.90
31527;DHT22;18136;42.236;-73.040;2023-05-10T04:48:05;6.00;99.90
31527;DHT22;18136;42.236;-73.040;2023-05-10T04:50:31;5.90;99.90
31527;DHT22;18136;42.236;-73.040;2023-05-10T04:52:57;5.90;99.90
31527;DHT22;18136;42.236;-73.040;2023-05-10T04:55:23;5.90;99.90
31527;DHT22;18136;42.236;-73.040;2023-05-10T04:57:49;5.90;99.90
31527;DHT22;18136;42.236;-73.040;2023-05-10T05:00:16;5.80;99.90
31527;DHT22;18136;42.236;-73.040;2023-05-10T05:02:43;5.80;99.90
31527;DHT22;18136;42.236;-73.040;2023-05-10T05:05:11;5.70;99.90
31527;DHT22;18136;42.236;-73.040;2023-05-10T05:07:37;5.70;99.90
31527;DHT22;18136;42.236;-73.040;2023-05-10T05:10:07;5.70;99.90
31527;DHT22;18136;42.236;-73.040;2023-05-10T05:12:34;5.70;99.90
31527;DHT22;18136;42.236;-73.040;2023-05-10T05:15:02;5.60;99.90
31527;DHT22;18136;42.236;-73.040;2023-05-10T05:17:30;5.60;99.90
31527;DHT22;18136;42.236;-73.040;2023-05-10T05:19:57;5.60;99.90
31527;DHT22;18136;42.236;-73.040;2023-05-10T05:22:23;5.50;99.90
31527;DHT22;18136;42.236;-73.040;2023-05-10T05:24:54;5.40;99.90
31527;DHT22;18136;42.236;-73.040;2023-05-10T05:27:20;5.50;99.90
31527;DHT22;18136;42.236;-73.040;2023-05-10T05:29:51;5.40;99.90
31527;DHT22;18136;42.236;-73.040;2023-05-10T05:32:17;5.40;99.90
31527;DHT22;18136;42.236;-73.040;2023-05-10T05:34:47;5.30;99.90
31527;DHT22;18136;42.236;-73.040;2023-05-10T05:37:20;5.30;99.90
31527;DHT22;18136;42.236;-73.040;2023-05-10T05:39:47;5.20;99.90
31527;DHT22;18136;42.236;-73.040;2023-05-10T05:42:13;5.20;99.90
31527;DHT22;18136;42.236;-73.040;2023-05-10T05:44:41;5.20;99.90
31527;DHT22;18136;42.236;-73.040;2023-05-10T05:47:07;5.20;99.90
31527;DHT22;18136;42.236;-73.040;2023-05-10T05:49:34;5.10;99.90
31527;DHT22;18136;42.236;-73.040;2023-05-10T05:52:04;5.10;99.90
31527;DHT22;18136;42.236;-73.040;2023-05-10T05:54:30;5.00;99.90
31527;DHT22;18136;42.236;-73.040;2023-05-10T05:56:57;4.90;99.90
31527;DHT22;18136;42.236;-73.040;2023-05-10T05:59:24;4.90;99.90
31527;DHT22;18136;42.236;-73.040;2023-05-10T06:01:51;4.80;99.90
31527;DHT22;18136;42.236;-73.040;2023-05-10T06:04:17;4.80;99.90
31527;DHT22;18136;42.236;-73.040;2023-05-10T06:06:44;4.70;99.90
31527;DHT22;18136;42.236;-73.040;2023-05-10T06:09:10;4.70;99.90
31527;DHT22;18136;42.236;-73.040;2023-05-10T06:11:37;4.70;99.90
31527;DHT22;18136;42.236;-73.040;2023-05-10T06:14:04;4.60;99.90
31527;DHT22;18136;42.236;-73.040;2023-05-10T06:16:30;4.60;99.90
31527;DHT22;18136;42.236;-73.040;2023-05-10T06:18:57;4.50;99.90
31527;DHT22;18136;42.236;-73.040;2023-05-10T06:21:23;4.50;99.90
31527;DHT22;18136;42.236;-73.040;2023-05-10T06:23:49;4.40;99.90
31527;DHT22;18136;42.236;-73.040;2023-05-10T06:26:15;4.40;99.90
31527;DHT22;18136;42.236;-73.040;2023-05-10T06:28:41;4.40;99.90
31527;DHT22;18136;42.236;-73.040;2023-05-10T06:31:07;4.40;99.90
31527;DHT22;18136;42.236;-73.040;2023-05-10T06:33:34;4.30;99.90
31527;DHT22;18136;42.236;-73.040;2023-05-10T06:36:00;4.30;99.90
31527;DHT22;18136;42.236;-73.040;2023-05-10T06:38:26;4.20;99.90
31527;DHT22;18136;42.236;-73.040;2023-05-10T06:40:52;4.20;99.90
31527;DHT22;18136;42.236;-73.040;2023-05-10T06:43:18;4.20;99.90
31527;DHT22;18136;42.236;-73.040;2023-05-10T06:45:44;4.10;99.90
31527;DHT22;18136;42.236;-73.040;2023-05-10T06:48:10;4.10;99.90
31527;DHT22;18136;42.236;-73.040;2023-05-10T06:50:36;4.10;99.90
31527;DHT22;18136;42.236;-73.040;2023-05-10T06:53:03;4.00;99.90
31527;DHT22;18136;42.236;-73.040;2023-05-10T06:55:29;4.00;99.90
31527;DHT22;18136;42.236;-73.040;2023-05-10T06:57:55;3.90;99.90
31527;DHT22;18136;42.236;-73.040;2023-05-10T07:00:21;3.80;99.90
31527;DHT22;18136;42.236;-73.040;2023-05-10T07:02:47;3.80;99.90
31527;DHT22;18136;42.236;-73.040;2023-05-10T07:05:14;3.80;99.90
31527;DHT22;18136;42.236;-73.040;2023-05-10T07:07:40;3.80;99.90
31527;DHT22;18136;42.236;-73.040;2023-05-10T07:10:07;3.70;99.90
31527;DHT22;18136;42.236;-73.040;2023-05-10T07:12:33;3.70;99.90
31527;DHT22;18136;42.236;-73.040;2023-05-10T07:14:59;3.70;99.90
31527;DHT22;18136;42.236;-73.040;2023-05-10T07:17:25;3.60;99.90
31527;DHT22;18136;42.236;-73.040;2023-05-10T07:19:52;3.60;99.90
31527;DHT22;18136;42.236;-73.040;2023-05-10T07:22:18;3.60;99.90
31527;DHT22;18136;42.236;-73.040;2023-05-10T07:24:44;3.60;99.90
31527;DHT22;18136;42.236;-73.040;2023-05-10T07:27:11;3.60;99.90
31527;DHT22;18136;42.236;-73.040;2023-05-10T07:29:37;3.50;99.90
31527;DHT22;18136;42.236;-73.040;2023-05-10T07:32:03;3.50;99.90
31527;DHT22;18136;42.236;-73.040;2023-05-10T07:34:29;3.50;99.90
31527;DHT22;18136;42.236;-73.040;2023-05-10T07:36:58;3.40;99.90
31527;DHT22;18136;42.236;-73.040;2023-05-10T07:39:24;3.40;99.90
31527;DHT22;18136;42.236;-73.040;2023-05-10T07:41:50;3.40;99.90
31527;DHT22;18136;42.236;-73.040;2023-05-10T07:44:16;3.40;99.90
31527;DHT22;18136;42.236;-73.040;2023-05-10T07:46:44;3.30;99.90
31527;DHT22;18136;42.236;-73.040;2023-05-10T07:49:10;3.30;99.90
31527;DHT22;18136;42.236;-73.040;2023-05-10T07:51:36;3.20;99.90
31527;DHT22;18136;42.236;-73.040;2023-05-10T07:54:02;3.20;99.90
31527;DHT22;18136;42.236;-73.040;2023-05-10T07:56:30;3.20;99.90
31527;DHT22;18136;42.236;-73.040;2023-05-10T07:58:58;3.20;99.90
31527;DHT22;18136;42.236;-73.040;2023-05-10T08:01:25;3.10;99.90
31527;DHT22;18136;42.236;-73.040;2023-05-10T08:03:52;3.10;99.90
31527;DHT22;18136;42.236;-73.040;2023-05-10T08:06:19;3.10;99.90
31527;DHT22;18136;42.236;-73.040;2023-05-10T08:08:47;3.00;99.90
31527;DHT22;18136;42.236;-73.040;2023-05-10T08:11:19;3.00;99.90
31527;DHT22;18136;42.236;-73.040;2023-05-10T08:13:46;3.00;99.90
31527;DHT22;18136;42.236;-73.040;2023-05-10T08:16:13;3.00;99.90
31527;DHT22;18136;42.236;-73.040;2023-05-10T08:18:39;2.90;99.90
31527;DHT22;18136;42.236;-73.040;2023-05-10T08:21:06;2.90;99.90
31527;DHT22;18136;42.236;-73.040;2023-05-10T08:23:32;2.90;99.90
31527;DHT22;18136;42.236;-73.040;2023-05-10T08:25:59;2.90;99.90
31527;DHT22;18136;42.236;-73.040;2023-05-10T08:28:25;2.90;99.90
31527;DHT22;18136;42.236;-73.040;2023-05-10T08:30:51;2.90;99.90
31527;DHT22;18136;42.236;-73.040;2023-05-10T08:33:18;2.90;99.90
31527;DHT22;18136;42.236;-73.040;2023-05-10T08:35:44;2.90;99.90
31527;DHT22;18136;42.236;-73.040;2023-05-10T08:38:10;2.90;99.90
31527;DHT22;18136;42.236;-73.040;2023-05-10T08:40:37;2.90;99.90
31527;DHT22;18136;42.236;-73.040;2023-05-10T08:43:09;2.90;99.90
31527;DHT22;18136;42.236;-73.040;2023-05-10T08:45:40;2.90;99.90
31527;DHT22;18136;42.236;-73.040;2023-05-10T08:48:08;2.90;99.90
31527;DHT22;18136;42.236;-73.040;2023-05-10T08:50:39;2.90;99.90
31527;DHT22;18136;42.236;-73.040;2023-05-10T08:53:09;2.90;99.90
31527;DHT22;18136;42.236;-73.040;2023-05-10T08:55:36;2.90;99.90
31527;DHT22;18136;42.236;-73.040;2023-05-10T08:58:05;2.90;99.90
31527;DHT22;18136;42.236;-73.040;2023-05-10T09:00:31;2.90;99.90
31527;DHT22;18136;42.236;-73.040;2023-05-10T09:02:58;2.90;99.90
31527;DHT22;18136;42.236;-73.040;2023-05-10T09:05:25;2.80;99.90
31527;DHT22;18136;42.236;-73.040;2023-05-10T09:07:51;2.90;99.90
31527;DHT22;18136;42.236;-73.040;2023-05-10T09:10:18;2.80;99.90
31527;DHT22;18136;42.236;-73.040;2023-05-10T09:12:44;2.80;99.90
31527;DHT22;18136;42.236;-73.040;2023-05-10T09:15:11;2.70;99.90
31527;DHT22;18136;42.236;-73.040;2023-05-10T09:17:38;2.70;99.90
31527;DHT22;18136;42.236;-73.040;2023-05-10T09:20:06;2.70;99.90
31527;DHT22;18136;42.236;-73.040;2023-05-10T09:22:33;2.60;99.90
31527;DHT22;18136;42.236;-73.040;2023-05-10T09:25:15;2.70;99.90
31527;DHT22;18136;42.236;-73.040;2023-05-10T09:27:45;2.70;99.90
31527;DHT22;18136;42.236;-73.040;2023-05-10T09:30:28;2.70;99.90
31527;DHT22;18136;42.236;-73.040;2023-05-10T09:32:55;2.70;99.90
31527;DHT22;18136;42.236;-73.040;2023-05-10T09:35:24;2.70;99.90
31527;DHT22;18136;42.236;-73.040;2023-05-10T09:37:52;2.60;99.90
31527;DHT22;18136;42.236;-73.040;2023-05-10T09:40:24;2.60;99.90
31527;DHT22;18136;42.236;-73.040;2023-05-10T09:42:57;2.50;99.90
31527;DHT22;18136;42.236;-73.040;2023-05-10T09:45:28;2.50;99.90
31527;DHT22;18136;42.236;-73.040;2023-05-10T09:47:56;2.50;99.90
31527;DHT22;18136;42.236;-73.040;2023-05-10T09:50:23;2.50;99.90
31527;DHT22;18136;42.236;-73.040;2023-05-10T09:52:51;2.50;99.90
31527;DHT22;18136;42.236;-73.040;2023-05-10T09:55:20;2.50;99.90
31527;DHT22;18136;42.236;-73.040;2023-05-10T09:57:47;2.60;99.90
31527;DHT22;18136;42.236;-73.040;2023-05-10T10:00:18;2.60;99.90
31527;DHT22;18136;42.236;-73.040;2023-05-10T10:03:05;2.60;99.90
31527;DHT22;18136;42.236;-73.040;2023-05-10T10:05:35;2.60;99.90
31527;DHT22;18136;42.236;-73.040;2023-05-10T10:08:05;2.60;99.90
31527;DHT22;18136;42.236;-73.040;2023-05-10T10:10:32;2.60;99.90
31527;DHT22;18136;42.236;-73.040;2023-05-10T10:12:59;2.60;99.90
31527;DHT22;18136;42.236;-73.040;2023-05-10T10:15:26;2.60;99.90
31527;DHT22;18136;42.236;-73.040;2023-05-10T10:17:53;2.60;99.90
31527;DHT22;18136;42.236;-73.040;2023-05-10T10:20:21;2.60;99.90
31527;DHT22;18136;42.236;-73.040;2023-05-10T10:22:48;2.70;99.90
31527;DHT22;18136;42.236;-73.040;2023-05-10T10:25:17;2.80;99.90
31527;DHT22;18136;42.236;-73.040;2023-05-10T10:30:44;2.80;99.90
31527;DHT22;18136;42.236;-73.040;2023-05-10T10:35:58;2.90;99.90
31527;DHT22;18136;42.236;-73.040;2023-05-10T10:38:35;2.90;99.90
31527;DHT22;18136;42.236;-73.040;2023-05-10T10:52:28;3.30;99.90
31527;DHT22;18136;42.236;-73.040;2023-05-10T10:55:08;3.40;99.90
31527;DHT22;18136;42.236;-73.040;2023-05-10T11:00:30;3.60;99.90
31527;DHT22;18136;42.236;-73.040;2023-05-10T11:02:59;3.70;99.90
31527;DHT22;18136;42.236;-73.040;2023-05-10T11:11:02;4.00;99.90
31527;DHT22;18136;42.236;-73.040;2023-05-10T11:13:33;4.10;99.90
31527;DHT22;18136;42.236;-73.040;2023-05-10T11:16:10;4.20;99.90
31527;DHT22;18136;42.236;-73.040;2023-05-10T11:18:37;4.30;99.90
31527;DHT22;18136;42.236;-73.040;2023-05-10T11:21:03;4.50;99.90
31527;DHT22;18136;42.236;-73.040;2023-05-10T11:26:13;4.70;99.90
31527;DHT22;18136;42.236;-73.040;2023-05-10T11:28:47;4.80;99.90
31527;DHT22;18136;42.236;-73.040;2023-05-10T11:31:15;5.00;99.90
31527;DHT22;18136;42.236;-73.040;2023-05-10T11:33:49;5.10;99.90
31527;DHT22;18136;42.236;-73.040;2023-05-10T11:36:17;5.20;99.90
31527;DHT22;18136;42.236;-73.040;2023-05-10T11:38:44;5.40;99.90
31527;DHT22;18136;42.236;-73.040;2023-05-10T11:41:11;5.40;99.90
31527;DHT22;18136;42.236;-73.040;2023-05-10T11:43:41;5.60;99.90
31527;DHT22;18136;42.236;-73.040;2023-05-10T11:46:10;5.70;99.90
31527;DHT22;18136;42.236;-73.040;2023-05-10T11:48:40;5.90;99.90
31527;DHT22;18136;42.236;-73.040;2023-05-10T11:51:08;6.00;99.90
31527;DHT22;18136;42.236;-73.040;2023-05-10T11:53:34;6.10;99.90
31527;DHT22;18136;42.236;-73.040;2023-05-10T11:56:10;6.20;99.90
31527;DHT22;18136;42.236;-73.040;2023-05-10T11:58:37;6.30;99.90
31527;DHT22;18136;42.236;-73.040;2023-05-10T12:01:04;6.40;99.90
31527;DHT22;18136;42.236;-73.040;2023-05-10T12:03:31;6.50;99.90
31527;DHT22;18136;42.236;-73.040;2023-05-10T12:05:58;6.70;99.90
31527;DHT22;18136;42.236;-73.040;2023-05-10T12:08:26;6.70;99.90
31527;DHT22;18136;42.236;-73.040;2023-05-10T12:11:03;6.80;99.90
31527;DHT22;18136;42.236;-73.040;2023-05-10T12:13:29;6.90;99.90
31527;DHT22;18136;42.236;-73.040;2023-05-10T12:15:58;7.00;99.90
31527;DHT22;18136;42.236;-73.040;2023-05-10T12:18:24;7.10;99.90
31527;DHT22;18136;42.236;-73.040;2023-05-10T12:20:54;7.20;99.90
31527;DHT22;18136;42.236;-73.040;2023-05-10T12:23:28;7.40;99.90
31527;DHT22;18136;42.236;-73.040;2023-05-10T12:26:02;7.50;99.90
31527;DHT22;18136;42.236;-73.040;2023-05-10T12:28:30;7.70;99.90
31527;DHT22;18136;42.236;-73.040;2023-05-10T12:30:58;7.80;99.90
31527;DHT22;18136;42.236;-73.040;2023-05-10T12:33:24;7.90;99.90
31527;DHT22;18136;42.236;-73.040;2023-05-10T12:35:52;8.00;99.90
31527;DHT22;18136;42.236;-73.040;2023-05-10T12:38:38;8.20;99.90
31527;DHT22;18136;42.236;-73.040;2023-05-10T12:41:07;8.30;98.00
31527;DHT22;18136;42.236;-73.040;2023-05-10T12:43:34;8.40;99.70
31527;DHT22;18136;42.236;-73.040;2023-05-10T12:46:11;8.60;98.20
31527;DHT22;18136;42.236;-73.040;2023-05-10T12:48:38;8.70;98.60
31527;DHT22;18136;42.236;-73.040;2023-05-10T12:51:05;8.90;97.90
31527;DHT22;18136;42.236;-73.040;2023-05-10T12:53:35;9.00;97.90
31527;DHT22;18136;42.236;-73.040;2023-05-10T12:56:01;9.20;98.50
31527;DHT22;18136;42.236;-73.040;2023-05-10T12:58:27;9.40;99.30
31527;DHT22;18136;42.236;-73.040;2023-05-10T13:00:54;9.50;97.10
31527;DHT22;18136;42.236;-73.040;2023-05-10T13:03:23;9.60;94.20
31527;DHT22;18136;42.236;-73.040;2023-05-10T13:05:49;9.70;95.80
31527;DHT22;18136;42.236;-73.040;2023-05-10T13:08:15;9.80;95.30
31527;DHT22;18136;42.236;-73.040;2023-05-10T13:10:41;10.00;95.60
31527;DHT22;18136;42.236;-73.040;2023-05-10T13:13:08;10.20;96.90
31527;DHT22;18136;42.236;-73.040;2023-05-10T13:15:34;10.40;93.30
31527;DHT22;18136;42.236;-73.040;2023-05-10T13:18:00;10.40;94.50
31527;DHT22;18136;42.236;-73.040;2023-05-10T13:20:27;10.60;91.70
31527;DHT22;18136;42.236;-73.040;2023-05-10T13:22:53;10.70;92.90
31527;DHT22;18136;42.236;-73.040;2023-05-10T13:25:19;10.90;92.90
31527;DHT22;18136;42.236;-73.040;2023-05-10T13:27:46;11.00;92.80
31527;DHT22;18136;42.236;-73.040;2023-05-10T13:30:12;11.20;93.40
31527;DHT22;18136;42.236;-73.040;2023-05-10T13:32:38;11.40;92.90
31527;DHT22;18136;42.236;-73.040;2023-05-10T13:35:05;11.50;91.90
31527;DHT22;18136;42.236;-73.040;2023-05-10T13:37:32;11.60;92.50
31527;DHT22;18136;42.236;-73.040;2023-05-10T13:40:01;11.80;93.10
31527;DHT22;18136;42.236;-73.040;2023-05-10T13:42:27;11.80;88.40
31527;DHT22;18136;42.236;-73.040;2023-05-10T13:44:53;11.80;90.30
31527;DHT22;18136;42.236;-73.040;2023-05-10T13:47:20;11.90;91.90
31527;DHT22;18136;42.236;-73.040;2023-05-10T13:49:47;12.10;89.70
31527;DHT22;18136;42.236;-73.040;2023-05-10T13:52:13;12.00;88.60
31527;DHT22;18136;42.236;-73.040;2023-05-10T13:54:40;12.10;90.20
31527;DHT22;18136;42.236;-73.040;2023-05-10T13:57:06;12.40;90.30
31527;DHT22;18136;42.236;-73.040;2023-05-10T13:59:33;12.60;89.30
31527;DHT22;18136;42.236;-73.040;2023-05-10T14:01:59;12.70;90.50
31527;DHT22;18136;42.236;-73.040;2023-05-10T14:04:28;12.90;86.40
31527;DHT22;18136;42.236;-73.040;2023-05-10T14:06:54;13.00;87.80
31527;DHT22;18136;42.236;-73.040;2023-05-10T14:09:21;13.10;84.00
31527;DHT22;18136;42.236;-73.040;2023-05-10T14:11:47;13.10;86.40
31527;DHT22;18136;42.236;-73.040;2023-05-10T14:14:13;13.10;80.70
31527;DHT22;18136;42.236;-73.040;2023-05-10T14:16:44;13.10;84.70
31527;DHT22;18136;42.236;-73.040;2023-05-10T14:19:10;13.20;87.20
31527;DHT22;18136;42.236;-73.040;2023-05-10T14:21:37;13.40;85.20
31527;DHT22;18136;42.236;-73.040;2023-05-10T14:24:04;13.50;82.60
31527;DHT22;18136;42.236;-73.040;2023-05-10T14:26:32;13.50;81.00
31527;DHT22;18136;42.236;-73.040;2023-05-10T14:28:59;13.40;82.00
31527;DHT22;18136;42.236;-73.040;2023-05-10T14:31:26;13.60;80.90
31527;DHT22;18136;42.236;-73.040;2023-05-10T14:33:53;13.60;84.60
31527;DHT22;18136;42.236;-73.040;2023-05-10T14:36:19;13.80;86.50
31527;DHT22;18136;42.236;-73.040;2023-05-10T14:38:45;13.80;80.10
31527;DHT22;18136;42.236;-73.040;2023-05-10T14:41:11;13.90;87.50
31527;DHT22;18136;42.236;-73.040;2023-05-10T14:43:40;14.20;80.40
31527;DHT22;18136;42.236;-73.040;2023-05-10T14:46:07;14.20;81.40
31527;DHT22;18136;42.236;-73.040;2023-05-10T14:48:33;14.40;85.30
31527;DHT22;18136;42.236;-73.040;2023-05-10T14:50:59;14.40;82.60
31527;DHT22;18136;42.236;-73.040;2023-05-10T14:53:25;14.60;81.30
31527;DHT22;18136;42.236;-73.040;2023-05-10T14:55:51;14.80;83.80
31527;DHT22;18136;42.236;-73.040;2023-05-10T14:58:17;14.80;82.00
31527;DHT22;18136;42.236;-73.040;2023-05-10T15:00:44;15.00;83.10
31527;DHT22;18136;42.236;-73.040;2023-05-10T15:03:10;15.20;80.40
31527;DHT22;18136;42.236;-73.040;2023-05-10T15:05:36;15.10;73.80
31527;DHT22;18136;42.236;-73.040;2023-05-10T15:08:03;14.90;71.20
31527;DHT22;18136;42.236;-73.040;2023-05-10T15:10:31;14.70;75.70
31527;DHT22;18136;42.236;-73.040;2023-05-10T15:12:58;14.80;74.10
31527;DHT22;18136;42.236;-73.040;2023-05-10T15:15:24;14.90;77.30
31527;DHT22;18136;42.236;-73.040;2023-05-10T15:17:51;15.20;84.00
31527;DHT22;18136;42.236;-73.040;2023-05-10T15:20:17;15.40;75.40
31527;DHT22;18136;42.236;-73.040;2023-05-10T15:22:43;15.50;75.70
31527;DHT22;18136;42.236;-73.040;2023-05-10T15:25:10;15.50;72.10
31527;DHT22;18136;42.236;-73.040;2023-05-10T15:27:36;15.60;69.40
31527;DHT22;18136;42.236;-73.040;2023-05-10T15:30:02;15.50;75.50
31527;DHT22;18136;42.236;-73.040;2023-05-10T15:32:29;15.70;71.00
31527;DHT22;18136;42.236;-73.040;2023-05-10T15:34:55;15.70;71.00
31527;DHT22;18136;42.236;-73.040;2023-05-10T15:37:21;15.70;70.60
31527;DHT22;18136;42.236;-73.040;2023-05-10T15:39:49;15.60;68.80
31527;DHT22;18136;42.236;-73.040;2023-05-10T15:42:16;15.60;73.10
31527;DHT22;18136;42.236;-73.040;2023-05-10T15:44:42;15.90;76.30
31527;DHT22;18136;42.236;-73.040;2023-05-10T15:47:10;16.20;73.20
31527;DHT22;18136;42.236;-73.040;2023-05-10T15:49:36;16.30;69.00
31527;DHT22;18136;42.236;-73.040;2023-05-10T15:52:02;16.20;71.40
31527;DHT22;18136;42.236;-73.040;2023-05-10T15:54:28;16.30;72.70
31527;DHT22;18136;42.236;-73.040;2023-05-10T15:56:54;16.40;67.10
31527;DHT22;18136;42.236;-73.040;2023-05-10T15:59:21;16.50;71.50
31527;DHT22;18136;42.236;-73.040;2023-05-10T16:01:47;16.70;71.20
31527;DHT22;18136;42.236;-73.040;2023-05-10T16:04:15;16.70;71.00
31527;DHT22;18136;42.236;-73.040;2023-05-10T16:06:42;16.70;71.70
31527;DHT22;18136;42.236;-73.040;2023-05-10T16:09:09;17.00;70.20
31527;DHT22;18136;42.236;-73.040;2023-05-10T16:11:35;17.00;71.80